createdAt,value
2023-01-12T00:01:33.893Z,7.30
2023-01-12T00:04:00.566Z,7.30
2023-01-12T00:06:27.212Z,7.30
2023-01-12T00:08:53.999Z,7.30
2023-01-12T00:11:21.332Z,7.30
2023-01-12T00:13:48.180Z,7.30
2023-01-12T00:16:35.767Z,7.30
2023-01-12T00:19:05.193Z,7.30
2023-01-12T00:21:35.677Z,7.30
2023-01-12T00:24:02.282Z,7.30
2023-01-12T00:26:28.892Z,7.30
2023-01-12T00:28:55.519Z,7.30
2023-01-12T00:31:22.118Z,7.20
2023-01-12T00:33:48.725Z,7.20
2023-01-12T00:36:18.205Z,7.20
2023-01-12T00:38:45.099Z,7.10
2023-01-12T00:41:32.054Z,7.10
2023-01-12T00:44:17.412Z,7.10
2023-01-12T00:46:44.569Z,7.10
2023-01-12T00:49:11.212Z,7.00
2023-01-12T00:51:37.798Z,7.00
2023-01-12T00:54:04.761Z,7.10
2023-01-12T00:56:31.941Z,7.10
2023-01-12T00:58:58.550Z,7.20
2023-01-12T01:01:25.351Z,7.20
2023-01-12T01:03:52.079Z,7.30
2023-01-12T01:06:18.656Z,7.30
2023-01-12T01:08:45.293Z,7.40
2023-01-12T01:11:13.780Z,7.50
2023-01-12T01:13:41.402Z,7.50
2023-01-12T01:16:08.738Z,7.40
2023-01-12T01:18:35.783Z,7.50
2023-01-12T01:21:03.152Z,7.50
2023-01-12T01:23:33.193Z,7.60
2023-01-12T01:26:11.059Z,7.60
2023-01-12T01:28:37.700Z,7.70
2023-01-12T01:31:16.231Z,7.70
2023-01-12T01:33:43.534Z,7.80
2023-01-12T01:36:10.602Z,7.80
2023-01-12T01:38:37.407Z,7.80
2023-01-12T01:41:05.698Z,7.80
2023-01-12T01:43:56.661Z,7.80
2023-01-12T01:46:41.830Z,7.90
2023-01-12T01:49:17.665Z,7.90
2023-01-12T01:51:45.840Z,7.90
2023-01-12T01:54:13.970Z,7.90
2023-01-12T01:56:41.224Z,7.90
2023-01-12T01:59:14.623Z,7.90
2023-01-12T02:01:41.635Z,7.90
2023-01-12T02:04:08.670Z,7.90
2023-01-12T02:06:35.591Z,7.90
2023-01-12T02:09:12.428Z,8.00
2023-01-12T02:11:57.552Z,8.00
2023-01-12T02:14:42.929Z,7.90
2023-01-12T02:17:14.548Z,7.90
2023-01-12T02:20:00.599Z,8.00
2023-01-12T02:23:07.379Z,8.00
2023-01-12T02:26:03.029Z,8.00
2023-01-12T02:29:02.159Z,8.00
2023-01-12T02:31:56.473Z,7.90
2023-01-12T02:34:46.495Z,8.00
2023-01-12T02:37:28.290Z,8.00
2023-01-12T02:40:30.797Z,8.00
2023-01-12T02:43:06.968Z,8.10
2023-01-12T02:45:47.788Z,8.00
2023-01-12T02:48:19.983Z,8.10
2023-01-12T02:51:14.315Z,8.10
2023-01-12T02:53:48.879Z,8.10
2023-01-12T02:56:32.593Z,8.10
2023-01-12T02:59:09.182Z,8.10
2023-01-12T03:01:37.758Z,8.10
2023-01-12T03:04:07.644Z,8.10
2023-01-12T03:06:56.278Z,8.10
2023-01-12T03:09:27.834Z,8.10
2023-01-12T03:11:59.948Z,8.10
2023-01-12T03:14:28.552Z,8.00
2023-01-12T03:16:56.579Z,8.00
2023-01-12T03:19:31.698Z,8.00
2023-01-12T03:22:05.639Z,7.90
2023-01-12T03:24:46.500Z,7.90
2023-01-12T03:27:18.058Z,7.90
2023-01-12T03:29:56.072Z,7.90
2023-01-12T03:32:23.490Z,7.90
2023-01-12T03:34:50.301Z,7.90
2023-01-12T03:37:36.958Z,7.90
2023-01-12T03:40:10.700Z,7.90
2023-01-12T03:43:04.532Z,7.90
2023-01-12T03:45:39.473Z,7.90
2023-01-12T03:48:15.172Z,7.90
2023-01-12T03:50:47.831Z,7.90
2023-01-12T03:53:18.282Z,7.90
2023-01-12T03:55:47.310Z,7.90
2023-01-12T03:58:14.710Z,7.90
2023-01-12T04:00:41.512Z,7.90
2023-01-12T04:03:13.500Z,7.90
2023-01-12T04:05:42.295Z,7.90
2023-01-12T04:08:10.030Z,7.90
2023-01-12T04:10:36.844Z,8.00
2023-01-12T04:13:03.637Z,7.90
2023-01-12T04:15:30.294Z,7.90
2023-01-12T04:17:56.993Z,8.00
2023-01-12T04:20:23.661Z,8.00
2023-01-12T04:22:50.265Z,8.00
2023-01-12T04:25:19.595Z,8.00
2023-01-12T04:27:49.177Z,8.00
2023-01-12T04:30:17.853Z,8.00
2023-01-12T04:32:44.943Z,8.00
2023-01-12T04:35:12.308Z,8.00
2023-01-12T04:37:39.895Z,8.10
2023-01-12T04:40:07.929Z,8.10
2023-01-12T04:42:52.986Z,8.10
2023-01-12T04:45:19.732Z,8.10
2023-01-12T04:47:46.341Z,8.10
2023-01-12T04:50:12.912Z,8.10
2023-01-12T04:52:39.688Z,8.10
2023-01-12T04:55:06.826Z,8.10
2023-01-12T04:57:34.959Z,8.20
2023-01-12T05:00:01.606Z,8.20
2023-01-12T05:02:28.546Z,8.20
2023-01-12T05:04:55.148Z,8.20
2023-01-12T05:07:21.912Z,8.10
2023-01-12T05:10:07.122Z,8.10
2023-01-12T05:12:33.989Z,8.10
2023-01-12T05:15:00.651Z,8.10
2023-01-12T05:17:27.323Z,8.10
2023-01-12T05:19:54.984Z,8.10
2023-01-12T05:22:21.585Z,8.10
2023-01-12T05:24:48.203Z,8.00
2023-01-12T05:27:14.824Z,8.00
2023-01-12T05:29:41.535Z,8.00
2023-01-12T05:32:08.231Z,8.00
2023-01-12T05:34:34.976Z,8.00
2023-01-12T05:37:01.570Z,8.00
2023-01-12T05:39:28.253Z,8.00
2023-01-12T05:42:13.325Z,8.00
2023-01-12T05:44:39.946Z,7.90
2023-01-12T05:47:06.562Z,7.80
2023-01-12T05:52:22.762Z,7.70
2023-01-12T05:54:49.395Z,7.70
2023-01-12T05:57:16.012Z,7.60
2023-01-12T05:59:42.628Z,7.60
2023-01-12T06:02:12.113Z,7.60
2023-01-12T06:04:39.163Z,7.60
2023-01-12T06:07:05.800Z,7.50
2023-01-12T06:09:32.485Z,7.50
2023-01-12T06:12:17.738Z,7.50
2023-01-12T06:14:44.429Z,7.40
2023-01-12T06:17:11.102Z,7.40
2023-01-12T06:19:38.943Z,7.40
2023-01-12T06:22:08.054Z,7.40
2023-01-12T06:24:35.109Z,7.40
2023-01-12T06:27:01.805Z,7.40
2023-01-12T06:29:28.392Z,7.30
2023-01-12T06:31:55.075Z,7.30
2023-01-12T06:34:21.715Z,7.30
2023-01-12T06:36:49.423Z,7.30
2023-01-12T06:39:16.237Z,7.30
2023-01-12T06:42:01.345Z,7.20
2023-01-12T06:44:27.923Z,7.30
2023-01-12T06:46:54.604Z,7.20
2023-01-12T06:49:21.224Z,7.20
2023-01-12T06:51:51.127Z,7.20
2023-01-12T06:54:18.710Z,7.20
2023-01-12T06:56:45.808Z,7.20
2023-01-12T06:59:12.751Z,7.20
2023-01-12T07:01:40.584Z,7.20
2023-01-12T07:04:07.409Z,7.20
2023-01-12T07:06:34.662Z,7.20
2023-01-12T07:09:01.343Z,7.20
2023-01-12T07:11:27.955Z,7.20
2023-01-12T07:13:55.622Z,7.20
2023-01-12T07:16:22.310Z,7.20
2023-01-12T07:18:49.473Z,7.20
2023-01-12T07:21:19.688Z,7.20
2023-01-12T07:23:46.322Z,7.20
2023-01-12T07:26:12.987Z,7.20
2023-01-12T07:28:39.898Z,7.20
2023-01-12T07:31:07.656Z,7.10
2023-01-12T07:33:34.988Z,7.20
2023-01-12T07:36:02.516Z,7.20
2023-01-12T07:38:30.554Z,7.20
2023-01-12T07:41:01.874Z,7.20
2023-01-12T07:43:29.015Z,7.20
2023-01-12T07:45:57.330Z,7.20
2023-01-12T07:48:25.010Z,7.20
2023-01-12T07:50:52.154Z,7.20
2023-01-12T07:53:19.872Z,7.20
2023-01-12T07:55:46.644Z,7.20
2023-01-12T07:58:13.240Z,7.20
2023-01-12T08:00:40.966Z,7.20
2023-01-12T08:03:12.547Z,7.20
2023-01-12T08:05:39.318Z,7.20
2023-01-12T08:08:06.704Z,7.20
2023-01-12T08:10:33.459Z,7.20
2023-01-12T08:13:00.213Z,7.20
2023-01-12T08:15:31.761Z,7.20
2023-01-12T08:18:06.996Z,7.20
2023-01-12T08:20:36.425Z,7.20
2023-01-12T08:23:24.194Z,7.30
2023-01-12T08:25:56.742Z,7.30
2023-01-12T08:28:36.638Z,7.30
2023-01-12T08:31:03.721Z,7.30
2023-01-12T08:33:30.540Z,7.40
2023-01-12T08:35:57.251Z,7.40
2023-01-12T08:38:23.848Z,7.40
2023-01-12T08:41:08.925Z,7.40
2023-01-12T08:43:54.249Z,7.50
2023-01-12T08:46:20.970Z,7.50
2023-01-12T08:48:47.571Z,7.50
2023-01-12T08:51:14.172Z,7.60
2023-01-12T08:53:40.752Z,7.60
2023-01-12T08:56:07.636Z,7.60
2023-01-12T08:58:34.330Z,7.70
2023-01-12T09:01:12.273Z,7.70
2023-01-12T09:03:39.735Z,7.70
2023-01-12T09:06:17.522Z,7.70
2023-01-12T09:08:44.820Z,7.70
2023-01-12T09:11:12.750Z,7.70
2023-01-12T09:13:39.516Z,7.70
2023-01-12T09:16:12.854Z,7.80
2023-01-12T09:18:40.711Z,7.80
2023-01-12T09:21:13.776Z,7.80
2023-01-12T09:23:42.092Z,7.80
2023-01-12T09:26:14.546Z,7.90
2023-01-12T09:28:41.792Z,7.90
2023-01-12T09:31:11.659Z,7.90
2023-01-12T09:33:39.647Z,7.90
2023-01-12T09:36:11.684Z,7.90
2023-01-12T09:38:40.136Z,8.00
2023-01-12T09:41:12.756Z,8.00
2023-01-12T09:43:59.494Z,8.00
2023-01-12T09:46:57.524Z,8.00
2023-01-12T09:49:33.291Z,8.00
2023-01-12T09:52:12.119Z,8.00
2023-01-12T09:54:39.134Z,8.00
2023-01-12T09:57:20.655Z,8.10
2023-01-12T10:00:04.189Z,8.10
2023-01-12T10:02:35.412Z,8.10
2023-01-12T10:05:08.126Z,8.10
2023-01-12T10:07:35.372Z,8.20
2023-01-12T10:10:02.135Z,8.20
2023-01-12T10:12:42.039Z,8.30
2023-01-12T10:15:20.189Z,8.30
2023-01-12T10:17:52.988Z,8.40
2023-01-12T10:20:38.940Z,8.40
2023-01-12T10:23:16.749Z,8.30
2023-01-12T10:25:48.482Z,8.30
2023-01-12T10:28:24.281Z,8.40
2023-01-12T10:30:52.865Z,8.40
2023-01-12T10:33:26.318Z,8.40
2023-01-12T10:36:05.881Z,8.40
2023-01-12T10:38:37.146Z,8.40
2023-01-12T10:41:12.729Z,8.50
2023-01-12T10:43:41.795Z,8.50
2023-01-12T10:46:17.445Z,8.50
2023-01-12T10:48:49.601Z,8.50
2023-01-12T10:51:26.935Z,8.50
2023-01-12T10:54:01.809Z,8.50
2023-01-12T10:56:41.377Z,8.50
2023-01-12T10:59:19.443Z,8.50
2023-01-12T11:01:53.441Z,8.60
2023-01-12T11:04:23.162Z,8.60
2023-01-12T11:07:25.632Z,8.60
2023-01-12T11:09:53.820Z,8.60
2023-01-12T11:12:39.986Z,8.60
2023-01-12T11:15:09.694Z,8.60
2023-01-12T11:17:50.130Z,8.70
2023-01-12T11:20:44.021Z,8.70
2023-01-12T11:23:16.235Z,8.80
2023-01-12T11:25:46.046Z,8.90
2023-01-12T11:28:27.411Z,8.90
2023-01-12T11:30:58.417Z,8.90
2023-01-12T11:33:31.224Z,8.90
2023-01-12T11:36:15.912Z,8.90
2023-01-12T11:38:48.745Z,8.90
2023-01-12T11:41:41.393Z,8.90
2023-01-12T11:44:24.711Z,8.90
2023-01-12T11:47:04.648Z,8.90
2023-01-12T11:50:10.326Z,9.00
2023-01-12T11:52:37.249Z,9.00
2023-01-12T11:55:04.320Z,9.00
2023-01-12T11:58:02.851Z,9.00
2023-01-12T12:00:40.858Z,9.10
2023-01-12T12:03:38.947Z,9.20
2023-01-12T12:06:21.976Z,9.20
2023-01-12T12:09:14.054Z,9.20
2023-01-12T12:11:55.647Z,9.20
2023-01-12T12:15:00.221Z,9.30
2023-01-12T12:17:41.771Z,9.30
2023-01-12T12:20:20.463Z,9.30
2023-01-12T12:22:51.854Z,9.40
2023-01-12T12:25:39.991Z,9.40
2023-01-12T12:28:35.900Z,9.30
2023-01-12T12:31:37.939Z,9.30
2023-01-12T12:34:31.652Z,9.20
2023-01-12T12:37:28.122Z,9.20
2023-01-12T12:40:15.581Z,9.20
2023-01-12T12:43:17.786Z,9.30
2023-01-12T12:46:00.155Z,9.30
2023-01-12T12:48:44.069Z,9.30
2023-01-12T12:51:12.934Z,9.30
2023-01-12T12:53:43.611Z,9.20
2023-01-12T12:56:17.065Z,9.20
2023-01-12T12:59:29.806Z,9.20
2023-01-12T13:01:58.497Z,9.20
2023-01-12T13:04:43.529Z,9.20
2023-01-12T13:07:21.979Z,9.20
2023-01-12T13:09:49.499Z,9.10
2023-01-12T13:12:26.986Z,9.10
2023-01-12T13:15:15.648Z,9.10
2023-01-12T13:17:44.782Z,9.10
2023-01-12T13:20:24.472Z,9.10
2023-01-12T13:22:52.244Z,9.10
2023-01-12T13:25:26.344Z,9.10
2023-01-12T13:28:00.174Z,9.10
2023-01-12T13:30:26.871Z,9.10
2023-01-12T13:32:53.489Z,9.00
2023-01-12T13:35:29.274Z,9.00
2023-01-12T13:38:10.180Z,8.90
2023-01-12T13:40:37.876Z,8.90
2023-01-12T13:43:21.082Z,9.00
2023-01-12T13:45:59.772Z,9.00
2023-01-12T13:48:29.358Z,9.00
2023-01-12T13:51:03.071Z,8.90
2023-01-12T13:53:31.800Z,8.90
2023-01-12T13:56:00.991Z,9.00
2023-01-12T13:58:37.661Z,9.00
2023-01-12T14:01:07.417Z,9.00
2023-01-12T14:04:20.268Z,9.00
2023-01-12T14:07:10.403Z,9.00
2023-01-12T14:10:11.665Z,9.00
2023-01-12T14:12:44.243Z,9.00
2023-01-12T14:15:45.281Z,9.00
2023-01-12T14:18:15.282Z,9.00
2023-01-12T14:20:48.168Z,9.00
2023-01-12T14:23:30.349Z,9.00
2023-01-12T14:26:10.372Z,9.00
2023-01-12T14:28:38.647Z,9.10
2023-01-12T14:31:09.141Z,9.10
2023-01-12T14:33:38.158Z,9.10
2023-01-12T14:36:11.186Z,9.10
2023-01-12T14:38:42.047Z,9.10
2023-01-12T14:41:34.772Z,9.10
2023-01-12T14:44:20.183Z,9.10
2023-01-12T14:46:50.254Z,9.10
2023-01-12T14:49:31.343Z,9.10
2023-01-12T14:52:03.082Z,9.10
2023-01-12T14:54:32.880Z,9.10
2023-01-12T14:57:21.124Z,9.00
2023-01-12T14:59:48.815Z,9.00
2023-01-12T15:02:24.395Z,9.00
2023-01-12T15:04:53.860Z,9.00
2023-01-12T15:07:22.234Z,9.00
2023-01-12T15:09:57.637Z,9.00
2023-01-12T15:12:28.035Z,9.00
2023-01-12T15:15:11.574Z,9.00
2023-01-12T15:17:56.920Z,9.00
2023-01-12T15:20:42.382Z,9.10
2023-01-12T15:23:31.431Z,9.10
2023-01-12T15:25:58.225Z,9.10
2023-01-12T15:28:24.896Z,9.10
2023-01-12T15:30:52.946Z,9.10
2023-01-12T15:33:20.736Z,9.10
2023-01-12T15:35:47.586Z,9.10
2023-01-12T15:38:18.258Z,9.10
2023-01-12T15:40:47.760Z,9.10
2023-01-12T15:43:17.766Z,9.00
2023-01-12T15:45:47.880Z,9.00
2023-01-12T15:48:14.861Z,9.00
2023-01-12T15:50:44.063Z,9.00
2023-01-12T15:53:20.668Z,9.00
2023-01-12T15:55:47.679Z,9.00
2023-01-12T15:58:16.838Z,9.00
2023-01-12T16:00:44.696Z,9.00
2023-01-12T16:03:32.194Z,9.00
2023-01-12T16:05:59.169Z,9.00
2023-01-12T16:08:26.097Z,9.00
2023-01-12T16:11:11.876Z,9.00
2023-01-12T16:13:39.141Z,9.00
2023-01-12T16:16:06.568Z,9.00
2023-01-12T16:18:34.178Z,9.00
2023-01-12T16:21:01.934Z,9.00
2023-01-12T16:23:28.648Z,9.00
2023-01-12T16:25:59.496Z,9.00
2023-01-12T16:28:27.564Z,9.00
2023-01-12T16:30:54.961Z,9.00
2023-01-12T16:33:22.145Z,9.00
2023-01-12T16:35:50.581Z,9.00
2023-01-12T16:38:18.295Z,9.00
2023-01-12T16:40:45.106Z,9.10
2023-01-12T16:43:12.573Z,9.00
2023-01-12T16:45:42.812Z,9.00
2023-01-12T16:48:09.489Z,9.00
2023-01-12T16:50:42.570Z,9.00
2023-01-12T16:53:10.946Z,9.00
2023-01-12T16:55:38.436Z,9.10
2023-01-12T16:58:06.716Z,9.10
2023-01-12T17:00:35.573Z,9.10
2023-01-12T17:03:03.000Z,9.10
2023-01-12T17:05:30.630Z,9.10
2023-01-12T17:07:57.795Z,9.10
2023-01-12T17:10:24.727Z,9.10
2023-01-12T17:12:56.434Z,9.10
2023-01-12T17:15:27.244Z,9.10
2023-01-12T17:17:55.254Z,9.20
2023-01-12T17:20:22.026Z,9.20
2023-01-12T17:22:48.937Z,9.20
2023-01-12T17:25:16.007Z,9.20
2023-01-12T17:27:42.883Z,9.20
2023-01-12T17:30:10.569Z,9.20
2023-01-12T17:32:37.667Z,9.20
2023-01-12T17:35:08.904Z,9.10
2023-01-12T17:37:35.753Z,9.10
2023-01-12T17:40:03.219Z,9.20
2023-01-12T17:42:48.358Z,9.20
2023-01-12T17:45:15.221Z,9.20
2023-01-12T17:47:41.845Z,9.20
2023-01-12T17:50:09.444Z,9.20
2023-01-12T17:52:36.255Z,9.20
2023-01-12T17:55:03.284Z,9.20
2023-01-12T17:57:32.381Z,9.20
2023-01-12T17:59:59.302Z,9.20
2023-01-12T18:02:26.148Z,9.20
2023-01-12T18:04:52.824Z,9.20
2023-01-12T18:07:25.011Z,9.20
2023-01-12T18:09:51.696Z,9.20
2023-01-12T18:12:21.411Z,9.20
2023-01-12T18:14:48.434Z,9.20
2023-01-12T18:17:15.860Z,9.20
2023-01-12T18:19:42.773Z,9.10
2023-01-12T18:22:10.940Z,9.10
2023-01-12T18:24:37.732Z,9.10
2023-01-12T18:27:04.436Z,9.10
2023-01-12T18:29:31.254Z,9.10
2023-01-12T18:31:57.895Z,9.10
2023-01-12T18:34:24.544Z,9.10
2023-01-12T18:36:51.786Z,9.10
2023-01-12T18:39:21.671Z,9.10
2023-01-12T18:42:08.254Z,9.10
2023-01-12T18:44:35.571Z,9.00
2023-01-12T18:47:21.900Z,9.10
2023-01-12T18:49:53.690Z,9.10
2023-01-12T18:52:38.985Z,9.10
2023-01-12T18:55:06.270Z,9.10
2023-01-12T18:57:33.964Z,9.10
2023-01-12T19:00:17.052Z,9.00
2023-01-12T19:02:44.373Z,9.00
2023-01-12T19:05:34.416Z,9.10
2023-01-12T19:08:01.564Z,9.10
2023-01-12T19:10:29.447Z,9.10
2023-01-12T19:13:16.667Z,9.10
2023-01-12T19:16:02.239Z,9.10
2023-01-12T19:18:28.962Z,9.10
2023-01-12T19:21:21.386Z,9.10
2023-01-12T19:24:06.881Z,9.10
2023-01-12T19:26:52.374Z,9.00
2023-01-12T19:29:19.011Z,9.10
2023-01-12T19:31:45.808Z,9.10
2023-01-12T19:34:12.435Z,9.00
2023-01-12T19:36:39.148Z,9.00
2023-01-12T19:39:07.702Z,9.00
2023-01-12T19:41:54.551Z,9.00
2023-01-12T19:44:21.322Z,9.00
2023-01-12T19:46:48.061Z,9.00
2023-01-12T19:49:17.588Z,9.00
2023-01-12T19:51:46.049Z,9.00
2023-01-12T19:54:12.910Z,9.00
2023-01-12T19:56:39.580Z,8.90
2023-01-12T19:59:07.503Z,8.90
2023-01-12T20:01:36.380Z,8.90
2023-01-12T20:04:03.616Z,8.90
2023-01-12T20:06:30.311Z,8.90
2023-01-12T20:08:56.903Z,8.90
2023-01-12T20:11:24.725Z,8.90
2023-01-12T20:13:51.403Z,8.90
2023-01-12T20:16:19.677Z,8.90
2023-01-12T20:18:46.359Z,9.00
2023-01-12T20:21:13.093Z,8.90
2023-01-12T20:23:39.855Z,8.90
2023-01-12T20:26:08.365Z,8.90
2023-01-12T20:28:35.624Z,8.90
2023-01-12T20:31:07.756Z,8.90
2023-01-12T20:33:34.619Z,8.90
2023-01-12T20:36:01.653Z,8.90
2023-01-12T20:38:28.507Z,8.90
2023-01-12T20:40:55.091Z,8.90
2023-01-12T20:43:21.980Z,8.90
2023-01-12T20:45:49.385Z,8.80
2023-01-12T20:48:16.051Z,8.80
2023-01-12T20:50:45.925Z,8.90
2023-01-12T20:53:13.755Z,8.90
2023-01-12T20:55:50.980Z,8.90
2023-01-12T20:58:18.541Z,8.90
2023-01-12T21:00:45.798Z,8.80
2023-01-12T21:03:12.572Z,8.80
2023-01-12T21:05:43.666Z,8.80
2023-01-12T21:08:10.594Z,8.80
2023-01-12T21:10:39.064Z,8.80
2023-01-12T21:13:06.600Z,8.80
2023-01-12T21:15:33.511Z,8.80
2023-01-12T21:18:00.196Z,8.80
2023-01-12T21:20:26.901Z,8.80
2023-01-12T21:22:53.484Z,8.70
2023-01-12T21:25:20.358Z,8.70
2023-01-12T21:27:47.101Z,8.70
2023-01-12T21:30:13.902Z,8.70
2023-01-12T21:32:42.731Z,8.70
2023-01-12T21:35:09.824Z,8.70
2023-01-12T21:37:36.420Z,8.70
2023-01-12T21:40:03.484Z,8.70
2023-01-12T21:42:48.766Z,8.70
2023-01-12T21:45:15.459Z,8.70
2023-01-12T21:47:42.107Z,8.70
2023-01-12T21:50:09.619Z,8.80
2023-01-12T21:52:37.366Z,8.80
2023-01-12T21:55:05.094Z,8.80
2023-01-12T21:57:32.896Z,8.80
2023-01-12T21:59:59.599Z,8.90
2023-01-12T22:02:26.183Z,8.80
2023-01-12T22:04:52.840Z,8.80
2023-01-12T22:07:19.434Z,8.90
2023-01-12T22:09:46.573Z,8.90
2023-01-12T22:12:13.387Z,8.90
2023-01-12T22:14:40.083Z,9.00
2023-01-12T22:17:06.799Z,9.10
2023-01-12T22:19:33.406Z,9.10
2023-01-12T22:22:01.354Z,9.10
2023-01-12T22:24:28.034Z,9.10
2023-01-12T22:26:54.715Z,9.10
2023-01-12T22:29:21.434Z,9.10
2023-01-12T22:31:48.204Z,9.20
2023-01-12T22:34:14.840Z,9.20
2023-01-12T22:36:44.283Z,9.20
2023-01-12T22:39:12.212Z,9.20
2023-01-12T22:41:40.203Z,9.20
2023-01-12T22:44:07.003Z,9.20
2023-01-12T22:46:33.798Z,9.20
2023-01-12T22:49:00.457Z,9.20
2023-01-12T22:51:28.357Z,9.20
2023-01-12T22:53:56.435Z,9.20
2023-01-12T22:56:23.694Z,9.30
2023-01-12T22:58:52.646Z,9.30
2023-01-12T23:01:20.845Z,9.30
2023-01-12T23:03:48.720Z,9.30
2023-01-12T23:06:17.015Z,9.30
2023-01-12T23:08:45.182Z,9.30
2023-01-12T23:11:18.488Z,9.30
2023-01-12T23:13:45.828Z,9.30
2023-01-12T23:16:17.394Z,9.30
2023-01-12T23:18:45.721Z,9.30
2023-01-12T23:21:24.989Z,9.30
2023-01-12T23:23:54.438Z,9.30
2023-01-12T23:26:30.985Z,9.30
2023-01-12T23:29:00.380Z,9.30
2023-01-12T23:31:30.057Z,9.30
2023-01-12T23:33:57.286Z,9.30
2023-01-12T23:36:26.699Z,9.30
2023-01-12T23:38:54.324Z,9.30
2023-01-12T23:41:24.893Z,9.30
2023-01-12T23:43:53.364Z,9.20
2023-01-12T23:46:22.558Z,9.20
2023-01-12T23:48:50.779Z,9.30
2023-01-12T23:51:17.967Z,9.20
2023-01-12T23:53:45.315Z,9.20
2023-01-12T23:56:14.635Z,9.30
2023-01-12T23:58:41.950Z,9.20
